sensor_id;sensor_type;location;lat;lon;timestamp;temperature;humidity
13686;DHT22;6915;48.296;8.874;2022-11-15T00:02:14;8.80;99.90
13686;DHT22;6915;48.296;8.874;2022-11-15T00:04:41;8.60;99.90
13686;DHT22;6915;48.296;8.874;2022-11-15T00:07:10;8.50;99.90
13686;DHT22;6915;48.296;8.874;2022-11-15T00:09:37;8.20;99.90
13686;DHT22;6915;48.296;8.874;2022-11-15T00:12:04;8.20;99.90
13686;DHT22;6915;48.296;8.874;2022-11-15T00:14:31;8.10;99.90
13686;DHT22;6915;48.296;8.874;2022-11-15T00:16:58;8.10;99.90
13686;DHT22;6915;48.296;8.874;2022-11-15T00:19:25;7.90;99.90
13686;DHT22;6915;48.296;8.874;2022-11-15T00:21:52;7.90;99.90
13686;DHT22;6915;48.296;8.874;2022-11-15T00:24:20;7.80;99.90
13686;DHT22;6915;48.296;8.874;2022-11-15T00:26:47;7.70;99.90
13686;DHT22;6915;48.296;8.874;2022-11-15T00:29:14;7.70;99.90
13686;DHT22;6915;48.296;8.874;2022-11-15T00:31:41;7.70;99.90
13686;DHT22;6915;48.296;8.874;2022-11-15T00:34:09;7.70;99.90
13686;DHT22;6915;48.296;8.874;2022-11-15T00:36:36;7.80;99.90
13686;DHT22;6915;48.296;8.874;2022-11-15T00:39:04;7.70;99.90
13686;DHT22;6915;48.296;8.874;2022-11-15T00:41:32;7.60;99.90
13686;DHT22;6915;48.296;8.874;2022-11-15T00:43:59;7.50;99.90
13686;DHT22;6915;48.296;8.874;2022-11-15T00:46:26;7.50;99.90
13686;DHT22;6915;48.296;8.874;2022-11-15T00:48:53;7.40;99.90
13686;DHT22;6915;48.296;8.874;2022-11-15T00:51:20;7.40;99.90
13686;DHT22;6915;48.296;8.874;2022-11-15T00:53:47;7.30;99.90
13686;DHT22;6915;48.296;8.874;2022-11-15T00:56:14;7.20;99.90
13686;DHT22;6915;48.296;8.874;2022-11-15T00:58:43;7.20;99.90
13686;DHT22;6915;48.296;8.874;2022-11-15T01:01:11;7.10;99.90
13686;DHT22;6915;48.296;8.874;2022-11-15T01:03:40;7.20;99.90
13686;DHT22;6915;48.296;8.874;2022-11-15T01:06:08;7.20;99.90
13686;DHT22;6915;48.296;8.874;2022-11-15T01:08:36;7.30;99.90
13686;DHT22;6915;48.296;8.874;2022-11-15T01:11:03;7.40;99.90
13686;DHT22;6915;48.296;8.874;2022-11-15T01:13:32;7.20;99.90
13686;DHT22;6915;48.296;8.874;2022-11-15T01:16:06;7.10;99.90
13686;DHT22;6915;48.296;8.874;2022-11-15T01:18:33;7.00;99.90
13686;DHT22;6915;48.296;8.874;2022-11-15T01:21:05;7.00;99.90
13686;DHT22;6915;48.296;8.874;2022-11-15T01:23:32;6.90;99.90
13686;DHT22;6915;48.296;8.874;2022-11-15T01:25:59;6.90;99.90
13686;DHT22;6915;48.296;8.874;2022-11-15T01:28:30;6.80;99.90
13686;DHT22;6915;48.296;8.874;2022-11-15T01:30:59;6.80;99.90
13686;DHT22;6915;48.296;8.874;2022-11-15T01:33:27;6.70;99.90
13686;DHT22;6915;48.296;8.874;2022-11-15T01:35:54;6.50;99.90
13686;DHT22;6915;48.296;8.874;2022-11-15T01:38:21;6.70;99.90
13686;DHT22;6915;48.296;8.874;2022-11-15T01:40:48;6.30;99.90
13686;DHT22;6915;48.296;8.874;2022-11-15T01:43:22;6.40;99.90
13686;DHT22;6915;48.296;8.874;2022-11-15T01:45:52;6.30;99.90
13686;DHT22;6915;48.296;8.874;2022-11-15T01:48:22;6.30;99.90
13686;DHT22;6915;48.296;8.874;2022-11-15T01:50:52;6.10;99.90
13686;DHT22;6915;48.296;8.874;2022-11-15T01:53:21;6.00;99.90
13686;DHT22;6915;48.296;8.874;2022-11-15T01:55:49;5.90;99.90
13686;DHT22;6915;48.296;8.874;2022-11-15T01:58:16;5.90;99.90
13686;DHT22;6915;48.296;8.874;2022-11-15T02:00:43;5.80;99.90
13686;DHT22;6915;48.296;8.874;2022-11-15T02:03:10;5.80;99.90
13686;DHT22;6915;48.296;8.874;2022-11-15T02:05:40;5.80;99.90
13686;DHT22;6915;48.296;8.874;2022-11-15T02:08:08;5.70;99.90
13686;DHT22;6915;48.296;8.874;2022-11-15T02:10:45;5.70;99.90
13686;DHT22;6915;48.296;8.874;2022-11-15T02:13:12;5.80;99.90
13686;DHT22;6915;48.296;8.874;2022-11-15T02:15:44;5.60;99.90
13686;DHT22;6915;48.296;8.874;2022-11-15T02:18:21;5.60;99.90
13686;DHT22;6915;48.296;8.874;2022-11-15T02:21:14;5.60;99.90
13686;DHT22;6915;48.296;8.874;2022-11-15T02:30:13;5.60;99.90
13686;DHT22;6915;48.296;8.874;2022-11-15T02:32:44;5.50;99.90
13686;DHT22;6915;48.296;8.874;2022-11-15T02:35:18;5.60;99.90
13686;DHT22;6915;48.296;8.874;2022-11-15T02:37:53;5.50;99.90
13686;DHT22;6915;48.296;8.874;2022-11-15T02:40:29;5.40;99.90
13686;DHT22;6915;48.296;8.874;2022-11-15T02:43:04;5.40;99.90
13686;DHT22;6915;48.296;8.874;2022-11-15T02:45:58;5.40;99.90
13686;DHT22;6915;48.296;8.874;2022-11-15T02:48:28;5.40;99.90
13686;DHT22;6915;48.296;8.874;2022-11-15T02:50:57;5.40;99.90
13686;DHT22;6915;48.296;8.874;2022-11-15T02:53:25;5.40;99.90
13686;DHT22;6915;48.296;8.874;2022-11-15T02:55:53;5.40;99.90
13686;DHT22;6915;48.296;8.874;2022-11-15T02:58:48;5.40;99.90
13686;DHT22;6915;48.296;8.874;2022-11-15T03:01:27;5.50;99.90
13686;DHT22;6915;48.296;8.874;2022-11-15T03:04:04;5.50;99.90
13686;DHT22;6915;48.296;8.874;2022-11-15T03:06:36;5.40;99.90
13686;DHT22;6915;48.296;8.874;2022-11-15T03:09:10;5.50;99.90
13686;DHT22;6915;48.296;8.874;2022-11-15T03:11:43;5.50;99.90
13686;DHT22;6915;48.296;8.874;2022-11-15T03:14:20;5.50;99.90
13686;DHT22;6915;48.296;8.874;2022-11-15T03:16:54;5.50;99.90
13686;DHT22;6915;48.296;8.874;2022-11-15T03:19:28;5.50;99.90
13686;DHT22;6915;48.296;8.874;2022-11-15T03:21:58;5.50;99.90
13686;DHT22;6915;48.296;8.874;2022-11-15T03:24:29;5.50;99.90
13686;DHT22;6915;48.296;8.874;2022-11-15T03:26:59;5.50;99.90
13686;DHT22;6915;48.296;8.874;2022-11-15T03:29:31;5.50;99.90
13686;DHT22;6915;48.296;8.874;2022-11-15T03:32:02;5.50;99.90
13686;DHT22;6915;48.296;8.874;2022-11-15T03:34:34;5.60;99.90
13686;DHT22;6915;48.296;8.874;2022-11-15T03:37:02;5.60;99.90
13686;DHT22;6915;48.296;8.874;2022-11-15T03:39:30;5.60;99.90
13686;DHT22;6915;48.296;8.874;2022-11-15T03:44:36;5.60;99.90
13686;DHT22;6915;48.296;8.874;2022-11-15T03:47:11;5.60;99.90
13686;DHT22;6915;48.296;8.874;2022-11-15T03:49:44;5.70;99.90
13686;DHT22;6915;48.296;8.874;2022-11-15T03:52:12;5.70;99.90
13686;DHT22;6915;48.296;8.874;2022-11-15T03:54:48;5.70;99.90
13686;DHT22;6915;48.296;8.874;2022-11-15T03:57:24;5.90;99.90
13686;DHT22;6915;48.296;8.874;2022-11-15T03:59:51;5.80;99.90
13686;DHT22;6915;48.296;8.874;2022-11-15T04:02:20;5.90;99.90
13686;DHT22;6915;48.296;8.874;2022-11-15T04:04:46;5.80;99.90
13686;DHT22;6915;48.296;8.874;2022-11-15T04:07:13;5.80;99.90
13686;DHT22;6915;48.296;8.874;2022-11-15T04:09:40;5.90;99.90
13686;DHT22;6915;48.296;8.874;2022-11-15T04:12:21;5.90;99.90
13686;DHT22;6915;48.296;8.874;2022-11-15T04:14:56;5.90;99.90
13686;DHT22;6915;48.296;8.874;2022-11-15T04:17:36;5.80;99.90
13686;DHT22;6915;48.296;8.874;2022-11-15T04:20:04;5.80;99.90
13686;DHT22;6915;48.296;8.874;2022-11-15T04:22:48;5.70;99.90
13686;DHT22;6915;48.296;8.874;2022-11-15T04:25:33;5.70;99.90
13686;DHT22;6915;48.296;8.874;2022-11-15T04:28:00;5.70;99.90
13686;DHT22;6915;48.296;8.874;2022-11-15T04:30:26;5.60;99.90
13686;DHT22;6915;48.296;8.874;2022-11-15T04:32:55;5.50;99.90
13686;DHT22;6915;48.296;8.874;2022-11-15T04:35:22;5.70;99.90
13686;DHT22;6915;48.296;8.874;2022-11-15T04:37:48;5.60;99.90
13686;DHT22;6915;48.296;8.874;2022-11-15T04:40:15;5.60;99.90
13686;DHT22;6915;48.296;8.874;2022-11-15T04:42:42;5.60;99.90
13686;DHT22;6915;48.296;8.874;2022-11-15T04:45:09;5.60;99.90
13686;DHT22;6915;48.296;8.874;2022-11-15T04:47:36;5.60;99.90
13686;DHT22;6915;48.296;8.874;2022-11-15T04:50:06;5.80;99.90
13686;DHT22;6915;48.296;8.874;2022-11-15T04:52:33;5.70;99.90
13686;DHT22;6915;48.296;8.874;2022-11-15T04:55:00;5.60;99.90
13686;DHT22;6915;48.296;8.874;2022-11-15T04:57:27;5.70;99.90
13686;DHT22;6915;48.296;8.874;2022-11-15T04:59:53;5.60;99.90
13686;DHT22;6915;48.296;8.874;2022-11-15T05:02:20;5.60;99.90
13686;DHT22;6915;48.296;8.874;2022-11-15T05:04:47;5.70;99.90
13686;DHT22;6915;48.296;8.874;2022-11-15T05:07:14;5.50;99.90
13686;DHT22;6915;48.296;8.874;2022-11-15T05:09:41;5.70;99.90
13686;DHT22;6915;48.296;8.874;2022-11-15T05:12:08;5.70;99.90
13686;DHT22;6915;48.296;8.874;2022-11-15T05:14:35;5.70;99.90
13686;DHT22;6915;48.296;8.874;2022-11-15T05:17:03;5.60;99.90
13686;DHT22;6915;48.296;8.874;2022-11-15T05:19:30;5.70;99.90
13686;DHT22;6915;48.296;8.874;2022-11-15T05:21:57;5.60;99.90
13686;DHT22;6915;48.296;8.874;2022-11-15T05:24:25;5.70;99.90
13686;DHT22;6915;48.296;8.874;2022-11-15T05:26:52;5.70;99.90
13686;DHT22;6915;48.296;8.874;2022-11-15T05:29:19;5.70;99.90
13686;DHT22;6915;48.296;8.874;2022-11-15T05:31:46;5.70;99.90
13686;DHT22;6915;48.296;8.874;2022-11-15T05:34:14;5.70;99.90
13686;DHT22;6915;48.296;8.874;2022-11-15T05:36:42;5.60;99.90
13686;DHT22;6915;48.296;8.874;2022-11-15T05:39:10;5.70;99.90
13686;DHT22;6915;48.296;8.874;2022-11-15T05:41:41;5.70;99.90
13686;DHT22;6915;48.296;8.874;2022-11-15T05:44:11;5.70;99.90
13686;DHT22;6915;48.296;8.874;2022-11-15T05:46:40;5.60;99.90
13686;DHT22;6915;48.296;8.874;2022-11-15T05:49:10;5.40;99.90
13686;DHT22;6915;48.296;8.874;2022-11-15T05:51:39;5.50;99.90
13686;DHT22;6915;48.296;8.874;2022-11-15T05:54:07;5.50;99.90
13686;DHT22;6915;48.296;8.874;2022-11-15T05:56:34;5.50;99.90
13686;DHT22;6915;48.296;8.874;2022-11-15T05:59:03;5.50;99.90
13686;DHT22;6915;48.296;8.874;2022-11-15T06:01:31;5.50;99.90
13686;DHT22;6915;48.296;8.874;2022-11-15T06:03:58;5.60;99.90
13686;DHT22;6915;48.296;8.874;2022-11-15T06:06:26;5.40;99.90
13686;DHT22;6915;48.296;8.874;2022-11-15T06:08:54;5.40;99.90
13686;DHT22;6915;48.296;8.874;2022-11-15T06:11:21;5.40;99.90
13686;DHT22;6915;48.296;8.874;2022-11-15T06:13:48;5.40;99.90
13686;DHT22;6915;48.296;8.874;2022-11-15T06:16:16;5.40;99.90
13686;DHT22;6915;48.296;8.874;2022-11-15T06:18:43;5.40;99.90
13686;DHT22;6915;48.296;8.874;2022-11-15T06:21:10;5.40;99.90
13686;DHT22;6915;48.296;8.874;2022-11-15T06:23:37;5.40;99.90
13686;DHT22;6915;48.296;8.874;2022-11-15T06:26:04;5.40;99.90
13686;DHT22;6915;48.296;8.874;2022-11-15T06:28:32;5.40;99.90
13686;DHT22;6915;48.296;8.874;2022-11-15T06:31:02;5.40;99.90
13686;DHT22;6915;48.296;8.874;2022-11-15T06:33:31;5.50;99.90
13686;DHT22;6915;48.296;8.874;2022-11-15T06:36:01;5.50;99.90
13686;DHT22;6915;48.296;8.874;2022-11-15T06:38:27;5.50;99.90
13686;DHT22;6915;48.296;8.874;2022-11-15T06:40:55;5.50;99.90
13686;DHT22;6915;48.296;8.874;2022-11-15T06:43:21;5.50;99.90
13686;DHT22;6915;48.296;8.874;2022-11-15T06:45:49;5.60;99.90
13686;DHT22;6915;48.296;8.874;2022-11-15T06:48:15;5.60;99.90
13686;DHT22;6915;48.296;8.874;2022-11-15T06:50:50;5.60;99.90
13686;DHT22;6915;48.296;8.874;2022-11-15T06:53:17;5.60;99.90
13686;DHT22;6915;48.296;8.874;2022-11-15T06:55:44;5.80;99.90
13686;DHT22;6915;48.296;8.874;2022-11-15T06:58:11;5.80;99.90
13686;DHT22;6915;48.296;8.874;2022-11-15T07:00:38;5.80;99.90
13686;DHT22;6915;48.296;8.874;2022-11-15T07:03:05;5.90;99.90
13686;DHT22;6915;48.296;8.874;2022-11-15T07:05:33;6.00;99.90
13686;DHT22;6915;48.296;8.874;2022-11-15T07:08:02;5.90;99.90
13686;DHT22;6915;48.296;8.874;2022-11-15T07:10:29;6.00;99.90
13686;DHT22;6915;48.296;8.874;2022-11-15T07:12:56;6.00;99.90
13686;DHT22;6915;48.296;8.874;2022-11-15T07:15:24;6.10;99.90
13686;DHT22;6915;48.296;8.874;2022-11-15T07:17:51;6.20;99.90
13686;DHT22;6915;48.296;8.874;2022-11-15T07:20:18;6.30;99.90
13686;DHT22;6915;48.296;8.874;2022-11-15T07:22:45;6.70;99.90
13686;DHT22;6915;48.296;8.874;2022-11-15T07:25:14;6.70;99.90
13686;DHT22;6915;48.296;8.874;2022-11-15T07:27:41;6.90;99.90
13686;DHT22;6915;48.296;8.874;2022-11-15T07:30:09;7.10;99.90
13686;DHT22;6915;48.296;8.874;2022-11-15T07:32:36;7.30;99.90
13686;DHT22;6915;48.296;8.874;2022-11-15T07:35:04;7.50;99.90
13686;DHT22;6915;48.296;8.874;2022-11-15T07:37:31;7.60;99.90
13686;DHT22;6915;48.296;8.874;2022-11-15T07:39:58;7.70;99.90
13686;DHT22;6915;48.296;8.874;2022-11-15T07:42:26;7.90;99.90
13686;DHT22;6915;48.296;8.874;2022-11-15T07:45:25;8.00;99.90
13686;DHT22;6915;48.296;8.874;2022-11-15T07:47:53;8.20;99.90
13686;DHT22;6915;48.296;8.874;2022-11-15T07:50:21;8.20;99.90
13686;DHT22;6915;48.296;8.874;2022-11-15T07:52:54;8.20;99.90
13686;DHT22;6915;48.296;8.874;2022-11-15T07:55:21;8.30;99.90
13686;DHT22;6915;48.296;8.874;2022-11-15T07:57:50;8.40;99.90
13686;DHT22;6915;48.296;8.874;2022-11-15T08:00:18;8.50;99.90
13686;DHT22;6915;48.296;8.874;2022-11-15T08:02:45;8.60;99.90
13686;DHT22;6915;48.296;8.874;2022-11-15T08:05:12;8.60;99.90
13686;DHT22;6915;48.296;8.874;2022-11-15T08:07:39;8.80;99.90
13686;DHT22;6915;48.296;8.874;2022-11-15T08:10:07;8.90;99.90
13686;DHT22;6915;48.296;8.874;2022-11-15T08:12:34;8.90;99.90
13686;DHT22;6915;48.296;8.874;2022-11-15T08:15:03;9.00;99.90
13686;DHT22;6915;48.296;8.874;2022-11-15T08:17:31;9.20;99.90
13686;DHT22;6915;48.296;8.874;2022-11-15T08:19:59;9.40;99.90
13686;DHT22;6915;48.296;8.874;2022-11-15T08:22:26;9.50;99.90
13686;DHT22;6915;48.296;8.874;2022-11-15T08:24:53;9.50;99.90
13686;DHT22;6915;48.296;8.874;2022-11-15T08:27:20;9.60;99.90
13686;DHT22;6915;48.296;8.874;2022-11-15T08:29:48;9.70;99.90
13686;DHT22;6915;48.296;8.874;2022-11-15T08:32:17;9.80;99.90
13686;DHT22;6915;48.296;8.874;2022-11-15T08:34:44;10.00;99.90
13686;DHT22;6915;48.296;8.874;2022-11-15T08:37:11;10.20;99.90
13686;DHT22;6915;48.296;8.874;2022-11-15T08:39:38;10.30;99.90
13686;DHT22;6915;48.296;8.874;2022-11-15T08:42:06;10.50;99.90
13686;DHT22;6915;48.296;8.874;2022-11-15T08:44:36;10.60;99.90
13686;DHT22;6915;48.296;8.874;2022-11-15T08:47:03;10.70;99.90
13686;DHT22;6915;48.296;8.874;2022-11-15T08:49:33;10.80;99.90
13686;DHT22;6915;48.296;8.874;2022-11-15T08:52:00;11.10;99.90
13686;DHT22;6915;48.296;8.874;2022-11-15T08:54:27;11.20;99.90
13686;DHT22;6915;48.296;8.874;2022-11-15T08:56:54;11.30;99.90
13686;DHT22;6915;48.296;8.874;2022-11-15T08:59:22;11.30;99.90
13686;DHT22;6915;48.296;8.874;2022-11-15T09:01:49;11.40;99.90
13686;DHT22;6915;48.296;8.874;2022-11-15T09:04:16;11.40;99.90
13686;DHT22;6915;48.296;8.874;2022-11-15T09:06:45;11.40;99.90
13686;DHT22;6915;48.296;8.874;2022-11-15T09:09:13;11.50;99.90
13686;DHT22;6915;48.296;8.874;2022-11-15T09:11:40;11.50;99.90
13686;DHT22;6915;48.296;8.874;2022-11-15T09:14:10;11.50;99.90
13686;DHT22;6915;48.296;8.874;2022-11-15T09:16:38;11.50;99.90
13686;DHT22;6915;48.296;8.874;2022-11-15T09:19:05;11.60;99.90
13686;DHT22;6915;48.296;8.874;2022-11-15T09:21:32;11.60;99.90
13686;DHT22;6915;48.296;8.874;2022-11-15T09:24:01;11.60;99.90
13686;DHT22;6915;48.296;8.874;2022-11-15T09:26:29;11.70;99.90
13686;DHT22;6915;48.296;8.874;2022-11-15T09:28:56;11.70;99.90
13686;DHT22;6915;48.296;8.874;2022-11-15T09:31:24;11.80;99.90
13686;DHT22;6915;48.296;8.874;2022-11-15T09:33:51;11.90;99.90
13686;DHT22;6915;48.296;8.874;2022-11-15T09:36:18;11.90;99.90
13686;DHT22;6915;48.296;8.874;2022-11-15T09:38:46;12.00;99.90
13686;DHT22;6915;48.296;8.874;2022-11-15T09:41:33;12.10;99.90
13686;DHT22;6915;48.296;8.874;2022-11-15T09:44:19;12.20;99.90
13686;DHT22;6915;48.296;8.874;2022-11-15T09:46:56;12.30;99.90
13686;DHT22;6915;48.296;8.874;2022-11-15T09:49:29;12.30;99.90
13686;DHT22;6915;48.296;8.874;2022-11-15T09:51:58;12.40;99.90
13686;DHT22;6915;48.296;8.874;2022-11-15T09:54:29;12.50;99.90
13686;DHT22;6915;48.296;8.874;2022-11-15T09:57:04;12.60;99.90
13686;DHT22;6915;48.296;8.874;2022-11-15T09:59:58;12.70;99.90
13686;DHT22;6915;48.296;8.874;2022-11-15T10:02:50;12.90;99.90
13686;DHT22;6915;48.296;8.874;2022-11-15T10:05:23;12.90;99.90
13686;DHT22;6915;48.296;8.874;2022-11-15T10:07:56;13.00;99.90
13686;DHT22;6915;48.296;8.874;2022-11-15T10:10:29;13.10;99.90
13686;DHT22;6915;48.296;8.874;2022-11-15T10:12:59;13.20;99.90
13686;DHT22;6915;48.296;8.874;2022-11-15T10:15:27;13.10;99.90
13686;DHT22;6915;48.296;8.874;2022-11-15T10:18:08;13.10;99.90
13686;DHT22;6915;48.296;8.874;2022-11-15T10:20:46;13.20;99.90
13686;DHT22;6915;48.296;8.874;2022-11-15T10:23:15;13.20;99.90
13686;DHT22;6915;48.296;8.874;2022-11-15T10:25:43;13.20;99.90
13686;DHT22;6915;48.296;8.874;2022-11-15T10:28:14;13.20;99.90
13686;DHT22;6915;48.296;8.874;2022-11-15T10:30:44;13.10;99.90
13686;DHT22;6915;48.296;8.874;2022-11-15T10:33:21;13.20;99.90
13686;DHT22;6915;48.296;8.874;2022-11-15T10:35:49;13.10;99.90
13686;DHT22;6915;48.296;8.874;2022-11-15T10:38:57;13.10;99.90
13686;DHT22;6915;48.296;8.874;2022-11-15T10:41:38;13.10;99.90
13686;DHT22;6915;48.296;8.874;2022-11-15T10:44:19;13.10;99.90
13686;DHT22;6915;48.296;8.874;2022-11-15T10:46:48;13.10;99.90
13686;DHT22;6915;48.296;8.874;2022-11-15T10:49:29;13.10;99.90
13686;DHT22;6915;48.296;8.874;2022-11-15T10:51:58;13.20;99.90
13686;DHT22;6915;48.296;8.874;2022-11-15T10:54:29;13.30;99.90
13686;DHT22;6915;48.296;8.874;2022-11-15T10:56:59;13.30;99.90
13686;DHT22;6915;48.296;8.874;2022-11-15T10:59:31;13.30;99.90
13686;DHT22;6915;48.296;8.874;2022-11-15T11:01:59;13.30;99.90
13686;DHT22;6915;48.296;8.874;2022-11-15T11:04:27;13.30;99.90
13686;DHT22;6915;48.296;8.874;2022-11-15T11:06:56;13.40;99.90
13686;DHT22;6915;48.296;8.874;2022-11-15T11:09:30;13.50;99.90
13686;DHT22;6915;48.296;8.874;2022-11-15T11:12:00;13.50;99.90
13686;DHT22;6915;48.296;8.874;2022-11-15T11:14:31;13.50;99.90
13686;DHT22;6915;48.296;8.874;2022-11-15T11:17:04;13.50;99.90
13686;DHT22;6915;48.296;8.874;2022-11-15T11:19:54;13.60;99.90
13686;DHT22;6915;48.296;8.874;2022-11-15T11:22:26;13.60;99.90
13686;DHT22;6915;48.296;8.874;2022-11-15T11:25:18;13.50;99.90
13686;DHT22;6915;48.296;8.874;2022-11-15T11:27:58;13.50;99.90
13686;DHT22;6915;48.296;8.874;2022-11-15T11:30:39;13.40;99.90
13686;DHT22;6915;48.296;8.874;2022-11-15T11:33:12;13.50;99.90
13686;DHT22;6915;48.296;8.874;2022-11-15T11:35:50;13.50;99.90
13686;DHT22;6915;48.296;8.874;2022-11-15T11:38:36;13.40;99.90
13686;DHT22;6915;48.296;8.874;2022-11-15T11:41:13;13.40;99.90
13686;DHT22;6915;48.296;8.874;2022-11-15T11:43:51;13.30;99.90
13686;DHT22;6915;48.296;8.874;2022-11-15T11:49:19;13.20;99.90
13686;DHT22;6915;48.296;8.874;2022-11-15T11:51:53;13.30;99.90
13686;DHT22;6915;48.296;8.874;2022-11-15T11:54:30;13.40;99.90
13686;DHT22;6915;48.296;8.874;2022-11-15T11:57:00;13.50;99.90
13686;DHT22;6915;48.296;8.874;2022-11-15T11:59:36;13.50;99.90
13686;DHT22;6915;48.296;8.874;2022-11-15T12:02:13;13.50;99.90
13686;DHT22;6915;48.296;8.874;2022-11-15T12:04:46;13.50;99.90
13686;DHT22;6915;48.296;8.874;2022-11-15T12:07:19;13.60;99.90
13686;DHT22;6915;48.296;8.874;2022-11-15T12:09:59;13.60;99.90
13686;DHT22;6915;48.296;8.874;2022-11-15T12:12:34;13.60;99.90
13686;DHT22;6915;48.296;8.874;2022-11-15T12:15:04;13.70;99.90
13686;DHT22;6915;48.296;8.874;2022-11-15T12:17:40;13.70;99.90
13686;DHT22;6915;48.296;8.874;2022-11-15T12:20:15;13.70;99.90
13686;DHT22;6915;48.296;8.874;2022-11-15T12:22:47;13.70;99.90
13686;DHT22;6915;48.296;8.874;2022-11-15T12:25:18;13.70;99.90
13686;DHT22;6915;48.296;8.874;2022-11-15T12:27:51;13.70;99.90
13686;DHT22;6915;48.296;8.874;2022-11-15T12:30:21;13.60;99.90
13686;DHT22;6915;48.296;8.874;2022-11-15T12:32:54;13.60;99.90
13686;DHT22;6915;48.296;8.874;2022-11-15T12:35:27;13.60;99.90
13686;DHT22;6915;48.296;8.874;2022-11-15T12:37:56;13.60;99.90
13686;DHT22;6915;48.296;8.874;2022-11-15T12:40:32;13.60;99.90
13686;DHT22;6915;48.296;8.874;2022-11-15T12:45:45;13.50;99.90
13686;DHT22;6915;48.296;8.874;2022-11-15T12:55:00;13.40;99.90
13686;DHT22;6915;48.296;8.874;2022-11-15T12:57:34;13.40;99.90
13686;DHT22;6915;48.296;8.874;2022-11-15T13:03:29;13.30;99.90
13686;DHT22;6915;48.296;8.874;2022-11-15T13:06:06;13.30;99.90
13686;DHT22;6915;48.296;8.874;2022-11-15T13:08:43;13.30;99.90
13686;DHT22;6915;48.296;8.874;2022-11-15T13:11:54;13.20;99.90
13686;DHT22;6915;48.296;8.874;2022-11-15T13:14:45;13.30;99.90
13686;DHT22;6915;48.296;8.874;2022-11-15T13:17:36;13.40;99.90
13686;DHT22;6915;48.296;8.874;2022-11-15T13:20:29;13.40;99.90
13686;DHT22;6915;48.296;8.874;2022-11-15T13:23:07;13.40;99.90
13686;DHT22;6915;48.296;8.874;2022-11-15T13:26:05;13.50;99.90
13686;DHT22;6915;48.296;8.874;2022-11-15T13:28:37;13.50;99.90
13686;DHT22;6915;48.296;8.874;2022-11-15T13:31:22;13.60;99.90
13686;DHT22;6915;48.296;8.874;2022-11-15T13:33:50;13.50;99.90
13686;DHT22;6915;48.296;8.874;2022-11-15T13:36:20;13.60;99.90
13686;DHT22;6915;48.296;8.874;2022-11-15T13:38:56;13.60;99.90
13686;DHT22;6915;48.296;8.874;2022-11-15T13:41:26;13.60;99.90
13686;DHT22;6915;48.296;8.874;2022-11-15T13:43:56;13.50;99.90
13686;DHT22;6915;48.296;8.874;2022-11-15T13:46:24;13.50;99.90
13686;DHT22;6915;48.296;8.874;2022-11-15T13:48:55;13.40;99.90
13686;DHT22;6915;48.296;8.874;2022-11-15T13:51:28;13.30;99.90
13686;DHT22;6915;48.296;8.874;2022-11-15T13:53:58;13.20;99.90
13686;DHT22;6915;48.296;8.874;2022-11-15T13:56:27;13.20;99.90
13686;DHT22;6915;48.296;8.874;2022-11-15T13:58:57;13.20;99.90
13686;DHT22;6915;48.296;8.874;2022-11-15T14:01:27;13.10;99.90
13686;DHT22;6915;48.296;8.874;2022-11-15T14:03:57;13.00;99.90
13686;DHT22;6915;48.296;8.874;2022-11-15T14:06:26;12.90;99.90
13686;DHT22;6915;48.296;8.874;2022-11-15T14:12:25;12.80;99.90
13686;DHT22;6915;48.296;8.874;2022-11-15T14:14:54;12.70;99.90
13686;DHT22;6915;48.296;8.874;2022-11-15T14:17:32;12.60;99.90
13686;DHT22;6915;48.296;8.874;2022-11-15T14:20:00;12.60;99.90
13686;DHT22;6915;48.296;8.874;2022-11-15T14:22:28;12.50;99.90
13686;DHT22;6915;48.296;8.874;2022-11-15T14:25:15;12.50;99.90
13686;DHT22;6915;48.296;8.874;2022-11-15T14:27:44;12.50;99.90
13686;DHT22;6915;48.296;8.874;2022-11-15T14:30:16;12.50;99.90
13686;DHT22;6915;48.296;8.874;2022-11-15T14:32:45;12.50;99.90
13686;DHT22;6915;48.296;8.874;2022-11-15T14:35:15;12.40;99.90
13686;DHT22;6915;48.296;8.874;2022-11-15T14:37:43;12.40;99.90
13686;DHT22;6915;48.296;8.874;2022-11-15T14:40:13;12.30;99.90
13686;DHT22;6915;48.296;8.874;2022-11-15T14:42:40;12.40;99.90
13686;DHT22;6915;48.296;8.874;2022-11-15T14:45:12;12.40;99.90
13686;DHT22;6915;48.296;8.874;2022-11-15T14:47:42;12.30;99.90
13686;DHT22;6915;48.296;8.874;2022-11-15T14:50:12;12.20;99.90
13686;DHT22;6915;48.296;8.874;2022-11-15T14:52:39;12.20;99.90
13686;DHT22;6915;48.296;8.874;2022-11-15T14:55:16;12.10;99.90
13686;DHT22;6915;48.296;8.874;2022-11-15T14:57:45;12.10;99.90
13686;DHT22;6915;48.296;8.874;2022-11-15T15:00:13;12.00;99.90
13686;DHT22;6915;48.296;8.874;2022-11-15T15:02:43;11.80;99.90
13686;DHT22;6915;48.296;8.874;2022-11-15T15:05:16;11.70;99.90
13686;DHT22;6915;48.296;8.874;2022-11-15T15:07:43;11.60;99.90
13686;DHT22;6915;48.296;8.874;2022-11-15T15:10:10;11.60;99.90
13686;DHT22;6915;48.296;8.874;2022-11-15T15:12:38;11.50;99.90
13686;DHT22;6915;48.296;8.874;2022-11-15T15:15:09;11.40;99.90
13686;DHT22;6915;48.296;8.874;2022-11-15T15:17:38;11.40;99.90
13686;DHT22;6915;48.296;8.874;2022-11-15T15:20:08;11.30;99.90
13686;DHT22;6915;48.296;8.874;2022-11-15T15:22:35;11.30;99.90
13686;DHT22;6915;48.296;8.874;2022-11-15T15:25:03;11.20;99.90
13686;DHT22;6915;48.296;8.874;2022-11-15T15:27:30;11.20;99.90
13686;DHT22;6915;48.296;8.874;2022-11-15T15:29:57;11.10;99.90
13686;DHT22;6915;48.296;8.874;2022-11-15T15:32:24;11.00;99.90
13686;DHT22;6915;48.296;8.874;2022-11-15T15:34:51;11.00;99.90
13686;DHT22;6915;48.296;8.874;2022-11-15T15:37:24;11.00;99.90
13686;DHT22;6915;48.296;8.874;2022-11-15T15:39:52;10.90;99.90
13686;DHT22;6915;48.296;8.874;2022-11-15T15:42:20;10.90;99.90
13686;DHT22;6915;48.296;8.874;2022-11-15T15:44:47;10.90;99.90
13686;DHT22;6915;48.296;8.874;2022-11-15T15:47:18;10.90;99.90
13686;DHT22;6915;48.296;8.874;2022-11-15T15:49:46;10.80;99.90
13686;DHT22;6915;48.296;8.874;2022-11-15T15:52:13;10.80;99.90
13686;DHT22;6915;48.296;8.874;2022-11-15T15:54:41;10.90;99.90
13686;DHT22;6915;48.296;8.874;2022-11-15T15:57:10;10.90;99.90
13686;DHT22;6915;48.296;8.874;2022-11-15T15:59:39;10.90;99.90
13686;DHT22;6915;48.296;8.874;2022-11-15T16:02:08;10.90;99.90
13686;DHT22;6915;48.296;8.874;2022-11-15T16:04:36;10.90;99.90
13686;DHT22;6915;48.296;8.874;2022-11-15T16:07:03;11.00;99.90
13686;DHT22;6915;48.296;8.874;2022-11-15T16:09:30;11.00;99.90
13686;DHT22;6915;48.296;8.874;2022-11-15T16:12:16;11.00;99.90
13686;DHT22;6915;48.296;8.874;2022-11-15T16:14:43;10.90;99.90
13686;DHT22;6915;48.296;8.874;2022-11-15T16:17:15;10.90;99.90
13686;DHT22;6915;48.296;8.874;2022-11-15T16:19:43;10.90;99.90
13686;DHT22;6915;48.296;8.874;2022-11-15T16:22:10;10.80;99.90
13686;DHT22;6915;48.296;8.874;2022-11-15T16:24:37;10.80;99.90
13686;DHT22;6915;48.296;8.874;2022-11-15T16:27:04;10.70;99.90
13686;DHT22;6915;48.296;8.874;2022-11-15T16:29:32;10.60;99.90
13686;DHT22;6915;48.296;8.874;2022-11-15T16:31:59;10.50;99.90
13686;DHT22;6915;48.296;8.874;2022-11-15T16:34:26;10.50;99.90
13686;DHT22;6915;48.296;8.874;2022-11-15T16:36:53;10.40;99.90
13686;DHT22;6915;48.296;8.874;2022-11-15T16:39:20;10.40;99.90
13686;DHT22;6915;48.296;8.874;2022-11-15T16:41:48;10.30;99.90
13686;DHT22;6915;48.296;8.874;2022-11-15T16:44:15;10.30;99.90
13686;DHT22;6915;48.296;8.874;2022-11-15T16:46:43;10.30;99.90